TAMU Turf Lab's Hourly Summary for Wednesday, July 4, 2018
Hour Temp
(f)
RH
(%)
Solar Rad.
(MJ/m2)
Rainfall
(in)
Wind
(mph)
7/4/2018 12:00 AM 79 62 0 0 6.39
7/4/2018 1:00 AM 78 64 0 0 4.97
7/4/2018 2:00 AM 77 66 0 0 3.54
7/4/2018 3:00 AM 77 66 0 0 4.39
7/4/2018 4:00 AM 77 66 0 0 3.4
7/4/2018 5:00 AM 76 71 0 0 2.78
7/4/2018 6:00 AM 76 74 0 0 1.35
7/4/2018 7:00 AM 76 75 0.02 0 1.26
7/4/2018 8:00 AM 77 73 0.19 0 0.64
7/4/2018 9:00 AM 78 72 0.56 0 1.88
7/4/2018 10:00 AM 80 65 1.25 0 2.92
7/4/2018 11:00 AM 82 66 0.96 0 4.78
7/4/2018 12:00 PM 82 66 0.8 0 3.98
7/4/2018 1:00 PM 79 74 1.03 0.09 1.9
7/4/2018 2:00 PM 78 70 0.9 0 8.6
7/4/2018 3:00 PM 74 76 0.84 0.09 5.35
7/4/2018 4:00 PM 74 86 0.5 0.02 6.05
7/4/2018 5:00 PM 74 90 0.64 0 6.41
7/4/2018 6:00 PM 74 86 0.51 0 5.86
7/4/2018 7:00 PM 75 83 0.29 0 6.33
7/4/2018 8:00 PM 75 82 0.13 0 6.64
7/4/2018 9:00 PM 75 80 0.04 0 6.91
7/4/2018 10:00 PM 74 81 0 0 5.3
7/4/2018 11:00 PM 74 83 0 0 5.3
Data Summary 76 74 8.66 0.20 4.46